Time;durP1;ratioP1;P1;durP2;ratioP2;P2;SDS_P1;SDS_P2;PMS_P1;PMS_P2;Temp;Humidity;BMP_temperature;BMP_pressure;BME280_temperature;BME280_humidity;BME280_pressure;Samples;Min_cycle;Max_cycle;Signal;HPM_P1;HPM_P2
2023/04/18 00:01:53;;;;;;;12.03;3.08;;;;;;;9.96;53.08;100360.70;1835560;77;21354;-86
2023/04/18 00:05:00;;;;;;;16.75;2.87;;;;;;;10.02;53.29;100359.19;1838641;78;21238;-86
2023/04/18 00:08:07;;;;;;;14.93;2.72;;;;;;;10.06;53.10;100351.48;1833335;77;21172;-86
2023/04/18 00:11:12;;;;;;;13.00;2.30;;;;;;;10.06;53.18;100348.74;1835578;77;21233;-86
2023/04/18 00:14:19;;;;;;;11.00;2.27;;;;;;;10.01;53.20;100347.89;1835507;77;21203;-86
2023/04/18 00:17:29;;;;;;;13.18;2.75;;;;;;;9.98;53.46;100353.72;1834090;78;21199;-86
2023/04/18 00:20:33;;;;;;;12.07;3.15;;;;;;;10.03;53.19;100341.77;1839150;78;21212;-86
2023/04/18 00:23:38;;;;;;;24.00;2.75;;;;;;;9.98;53.21;100337.33;1838541;77;21251;-86
2023/04/18 00:26:43;;;;;;;11.33;2.92;;;;;;;10.12;53.02;100340.73;1834432;77;21204;-87
2023/04/18 00:29:48;;;;;;;13.45;2.70;;;;;;;10.04;53.03;100347.56;1837636;77;21630;-86
2023/04/18 00:32:54;;;;;;;14.90;3.02;;;;;;;10.03;53.02;100342.28;1832116;77;21204;-86
2023/04/18 00:36:01;;;;;;;13.48;2.50;;;;;;;9.94;53.47;100348.25;1839142;77;21466;-86
2023/04/18 00:39:06;;;;;;;15.28;3.12;;;;;;;9.81;53.79;100339.20;1842384;77;22102;-86
2023/04/18 00:42:12;;;;;;;17.52;2.47;;;;;;;9.86;53.87;100349.09;1839517;77;21377;-86
2023/04/18 00:45:19;;;;;;;21.17;2.72;;;;;;;9.85;54.13;100348.77;1841280;77;21203;-87
2023/04/18 00:48:24;;;;;;;8.50;2.22;;;;;;;9.78;54.20;100339.53;1859414;76;21362;-86
2023/04/18 00:51:30;;;;;;;16.77;3.25;;;;;;;9.80;54.67;100341.59;1858460;76;21145;-86
2023/04/18 00:54:36;;;;;;;19.17;3.15;;;;;;;9.71;54.97;100335.27;1852041;76;21215;-87
2023/04/18 00:57:42;;;;;;;15.15;3.72;;;;;;;9.70;55.16;100336.30;1852637;76;21188;-86
2023/04/18 01:00:49;;;;;;;23.95;3.83;;;;;;;9.80;54.83;100327.94;1855320;76;21183;-86
2023/04/18 01:03:55;;;;;;;44.10;3.40;;;;;;;9.65;55.10;100330.50;1868763;76;21775;-86
2023/04/18 01:07:01;;;;;;;16.40;2.87;;;;;;;9.59;55.67;100341.23;1868087;76;21145;-86
2023/04/18 01:10:08;;;;;;;16.50;2.77;;;;;;;9.66;55.30;100340.39;1861102;76;21803;-86
2023/04/18 01:13:22;;;;;;;17.95;3.33;;;;;;;9.60;55.57;100336.13;1864556;76;21230;-86
2023/04/18 01:16:28;;;;;;;31.37;3.85;;;;;;;9.62;55.51;100338.17;1867410;76;21876;-86
2023/04/18 01:19:36;;;;;;;10.75;3.05;;;;;;;9.65;55.17;100336.48;1860382;76;21197;-87
2023/04/18 01:22:42;;;;;;;17.05;3.00;;;;;;;9.70;55.04;100332.20;1866573;76;21168;-87
2023/04/18 01:25:51;;;;;;;25.77;4.80;;;;;;;9.75;54.97;100332.21;1864737;76;21220;-87
2023/04/18 01:28:54;;;;;;;12.82;2.80;;;;;;;9.76;54.62;100334.76;1852122;76;21195;-87
2023/04/18 01:32:01;;;;;;;14.18;2.70;;;;;;;9.71;54.67;100330.33;1869170;76;21750;-87
2023/04/18 01:35:07;;;;;;;24.67;3.62;;;;;;;9.68;54.62;100321.09;1859521;76;21504;-87
2023/04/18 01:38:12;;;;;;;27.40;4.15;;;;;;;9.62;54.96;100328.61;1856226;76;21262;-87
2023/04/18 01:41:17;;;;;;;20.43;4.05;;;;;;;9.61;54.89;100332.37;1869238;76;21265;-87
2023/04/18 01:44:23;;;;;;;20.30;3.90;;;;;;;9.52;54.90;100338.84;1856472;76;21762;-87
2023/04/18 01:47:30;;;;;;;49.42;5.33;;;;;;;9.53;54.73;100338.66;1858165;76;21231;-87
2023/04/18 01:50:35;;;;;;;21.20;3.98;;;;;;;9.56;54.74;100331.52;1865257;76;21197;-87
2023/04/18 01:53:40;;;;;;;30.35;4.12;;;;;;;9.60;54.66;100341.59;1864206;76;22933;-86
2023/04/18 01:56:45;;;;;;;20.37;3.80;;;;;;;9.58;54.49;100338.16;1866315;76;21719;-86
2023/04/18 01:59:52;;;;;;;35.73;5.83;;;;;;;9.52;54.61;100335.60;1862686;76;21255;-86
2023/04/18 02:03:08;;;;;;;32.45;4.20;;;;;;;9.54;54.49;100343.61;1870983;76;21727;-86
2023/04/18 02:06:15;;;;;;;38.25;4.80;;;;;;;9.40;54.69;100332.84;1856306;76;21835;-86
2023/04/18 02:09:22;;;;;;;17.75;3.85;;;;;;;9.35;55.27;100333.34;1855943;76;21211;-86
2023/04/18 02:12:27;;;;;;;37.78;4.97;;;;;;;9.35;55.20;100335.22;1865650;76;21787;-86
2023/04/18 02:15:33;;;;;;;30.72;4.55;;;;;;;9.22;55.47;100332.97;1863291;76;21242;-86
2023/04/18 02:18:39;;;;;;;31.00;4.45;;;;;;;9.19;55.53;100333.33;1867631;76;21842;-86
2023/04/18 02:21:46;;;;;;;22.35;3.45;;;;;;;9.25;55.41;100339.98;1863687;76;21249;-86
2023/04/18 02:24:52;;;;;;;16.02;3.65;;;;;;;9.23;54.88;100334.70;1869621;76;21137;-86
2023/04/18 02:27:57;;;;;;;22.10;3.42;;;;;;;9.23;55.05;100337.95;1869231;76;21200;-86
2023/04/18 02:31:03;;;;;;;39.90;5.50;;;;;;;9.24;55.07;100340.50;1859376;76;22084;-86
2023/04/18 02:34:08;;;;;;;26.30;4.17;;;;;;;9.14;55.39;100343.38;1868693;76;21231;-86
2023/04/18 02:37:14;;;;;;;30.20;3.90;;;;;;;9.13;55.70;100338.09;1859726;76;21192;-86
2023/04/18 02:40:22;;;;;;;35.73;5.22;;;;;;;8.96;55.81;100329.84;1865887;76;21184;-86
2023/04/18 02:43:27;;;;;;;34.18;4.85;;;;;;;8.90;56.25;100325.56;1859269;76;21208;-86
2023/04/18 02:46:33;;;;;;;24.45;3.98;;;;;;;8.87;56.24;100334.92;1858960;76;21400;-86
2023/04/18 02:49:38;;;;;;;42.98;4.22;;;;;;;8.85;56.70;100331.52;1859542;76;21168;-86
2023/04/18 02:52:44;;;;;;;32.78;5.47;;;;;;;8.72;56.93;100325.66;1863313;76;21192;-86
2023/04/18 02:55:51;;;;;;;31.00;3.92;;;;;;;8.59;57.27;100325.26;1857523;76;21204;-86
2023/04/18 02:59:15;;;;;;;32.67;3.40;;;;;;;8.42;58.09;100321.10;1852593;76;21806;-87
2023/04/18 03:02:22;;;;;;;28.25;3.70;;;;;;;8.45;58.06;100318.03;1810620;76;21274;-87
2023/04/18 03:05:30;;;;;;;22.27;2.87;;;;;;;8.40;58.49;100324.48;1852802;76;21743;-86
2023/04/18 03:08:52;;;;;;;33.38;5.25;;;;;;;8.29;58.92;100329.33;1855175;76;21668;-87
2023/04/18 03:12:01;;;;;;;34.23;3.55;;;;;;;8.26;59.39;100328.28;1644593;86;22114;-87
2023/04/18 03:15:06;;;;;;;25.32;3.30;;;;;;;8.27;59.33;100323.17;1634072;86;21263;-87
2023/04/18 03:18:12;;;;;;;25.50;3.60;;;;;;;8.28;59.42;100332.57;1638035;87;21258;-87
2023/04/18 03:21:20;;;;;;;33.90;5.47;;;;;;;8.37;59.21;100338.41;1626652;87;21302;-87
2023/04/18 03:24:25;;;;;;;34.20;3.50;;;;;;;8.30;59.33;100346.02;1643457;86;21259;-87
2023/04/18 03:27:30;;;;;;;25.20;3.47;;;;;;;8.39;59.33;100344.58;1643774;86;21236;-87
2023/04/18 03:30:38;;;;;;;20.65;3.75;;;;;;;8.47;59.28;100345.63;1646995;86;21247;-87
2023/04/18 03:33:44;;;;;;;31.30;4.05;;;;;;;8.51;59.36;100341.56;1682893;84;21231;-87
2023/04/18 03:36:50;;;;;;;45.63;5.83;;;;;;;8.57;59.06;100332.76;1681800;84;21226;-86
2023/04/18 03:39:57;;;;;;;53.87;4.58;;;;;;;8.51;59.42;100326.06;1691253;84;21239;-87
2023/04/18 03:43:07;;;;;;;40.97;4.90;;;;;;;8.66;58.83;100321.73;1687793;84;21312;-87
2023/04/18 03:46:12;;;;;;;34.67;4.55;;;;;;;8.68;58.69;100324.28;1691810;84;21238;-87
2023/04/18 03:49:18;;;;;;;44.23;4.90;;;;;;;8.64;58.33;100341.47;1675009;83;21217;-86
2023/04/18 03:52:23;;;;;;;38.05;6.37;;;;;;;8.85;58.34;100334.76;1643363;86;21279;-87
2023/04/18 03:55:28;;;;;;;35.05;4.25;;;;;;;8.96;57.25;100333.08;1646588;86;21295;-87
2023/04/18 03:58:35;;;;;;;34.67;3.95;;;;;;;8.86;57.27;100342.77;1646430;86;21256;-86
2023/04/18 04:01:40;;;;;;;36.53;4.97;;;;;;;8.89;57.60;100336.99;1646578;86;21252;-87
2023/04/18 04:04:47;;;;;;;47.40;5.35;;;;;;;9.00;56.96;100354.92;1675271;83;21357;-87
2023/04/18 04:07:53;;;;;;;38.20;4.37;;;;;;;9.02;57.15;100345.20;1716960;83;21259;-87
2023/04/18 04:10:59;;;;;;;26.17;4.92;;;;;;;9.14;57.29;100356.17;1718802;83;21230;-87
2023/04/18 04:14:06;;;;;;;38.33;4.28;;;;;;;9.31;55.93;100350.22;1719142;83;21901;-87
2023/04/18 04:17:12;;;;;;;27.95;5.95;;;;;;;9.17;56.63;100364.00;1715877;83;21767;-87
2023/04/18 04:20:22;;;;;;;42.83;5.55;;;;;;;9.20;56.69;100367.77;1719854;83;21231;-87
2023/04/18 04:23:28;;;;;;;41.25;6.42;;;;;;;9.24;56.33;100361.48;1716294;83;21242;-87
2023/04/18 04:26:35;;;;;;;41.70;5.58;;;;;;;9.26;55.59;100371.19;1716196;83;21234;-87
2023/04/18 04:29:42;;;;;;;31.23;5.50;;;;;;;9.14;56.39;100372.54;1714943;83;21298;-87
2023/04/18 04:32:50;;;;;;;41.33;5.10;;;;;;;9.12;56.99;100378.14;1716676;83;21243;-87
2023/04/18 04:35:56;;;;;;;38.33;5.87;;;;;;;9.45;56.42;100370.05;1718575;83;21223;-87
2023/04/18 04:39:07;;;;;;;30.35;5.30;;;;;;;9.32;56.67;100366.45;1720119;83;21234;-87
2023/04/18 04:42:30;;;;;;;38.75;4.62;;;;;;;9.21;57.15;100370.84;1676559;84;21241;-87
2023/04/18 04:45:37;;;;;;;45.05;5.28;;;;;;;9.09;56.66;100352.57;1717662;83;21211;-87
2023/04/18 04:48:46;;;;;;;34.40;4.78;;;;;;;9.22;56.65;100347.98;1663884;86;21286;-87
2023/04/18 04:51:51;;;;;;;36.65;5.03;;;;;;;9.17;57.11;100353.97;1660156;86;21258;-87
2023/04/18 04:54:59;;;;;;;49.53;5.80;;;;;;;9.26;56.96;100349.88;1662614;86;21234;-87
2023/04/18 04:58:04;;;;;;;51.08;7.08;;;;;;;9.31;56.89;100347.50;1661802;86;21314;-87
2023/04/18 05:01:20;;;;;;;30.23;5.00;;;;;;;9.19;57.01;100357.38;1675168;83;21261;-87
2023/04/18 05:04:26;;;;;;;35.05;4.42;;;;;;;9.24;56.58;100347.32;1705464;83;21272;-87
2023/04/18 05:07:33;;;;;;;46.13;6.58;;;;;;;9.05;58.06;100338.91;1710987;83;21225;-87
2023/04/18 05:10:39;;;;;;;48.40;5.00;;;;;;;9.07;58.29;100346.92;1711170;83;21787;-87
2023/04/18 05:13:46;;;;;;;54.85;5.50;;;;;;;9.08;58.95;100345.41;1713212;83;21245;-87
2023/04/18 05:16:52;;;;;;;48.42;6.20;;;;;;;9.15;59.06;100342.86;1683741;83;21253;-87
2023/04/18 05:19:58;;;;;;;52.17;4.78;;;;;;;9.27;58.14;100336.08;1623956;85;21315;-87
2023/04/18 05:23:04;;;;;;;46.63;4.55;;;;;;;9.29;58.25;100327.72;1636543;86;21181;-87
2023/04/18 05:26:14;;;;;;;59.55;5.40;;;;;;;9.38;58.63;100328.08;1690893;83;21225;-87
2023/04/18 05:29:19;;;;;;;31.37;5.00;;;;;;;9.37;57.48;100323.64;1675247;83;21236;-88
2023/04/18 05:32:25;;;;;;;45.90;5.15;;;;;;;9.28;59.05;100320.04;1690202;83;21243;-87
2023/04/18 05:35:35;;;;;;;56.30;6.87;;;;;;;9.09;58.77;100313.00;1682546;82;21239;-87
2023/04/18 05:38:40;;;;;;;;;;;;;;;9.19;58.77;100316.95;1688656;83;21245;-87
2023/04/18 05:41:45;;;;;;;32.50;4.50;;;;;;;9.31;59.08;100307.41;1673075;83;20231;-87
2023/04/18 05:44:56;;;;;;;50.78;6.40;;;;;;;9.67;58.80;100319.39;1701882;83;21270;-87
2023/04/18 05:47:59;;;;;;;41.05;5.03;;;;;;;9.81;57.98;100303.69;1672364;84;21424;-87
2023/04/18 05:51:04;;;;;;;71.02;5.30;;;;;;;10.05;57.80;100291.87;1688001;83;21803;-87
2023/04/18 05:54:11;;;;;;;45.80;4.58;;;;;;;10.08;57.95;100305.72;1686837;83;21177;-87
2023/04/18 05:57:16;;;;;;;37.58;4.42;;;;;;;9.94;57.04;100301.80;1676775;83;21253;-87
2023/04/18 06:00:22;;;;;;;39.70;5.25;;;;;;;10.02;57.49;100311.37;1692190;83;21782;-87
2023/04/18 06:03:27;;;;;;;48.50;5.03;;;;;;;9.95;56.67;100310.34;1649734;85;21213;-87
2023/04/18 06:06:34;;;;;;;32.25;4.87;;;;;;;9.97;57.25;100311.00;1695062;83;22053;-87
2023/04/18 06:09:41;;;;;;;45.58;4.35;;;;;;;10.16;58.02;100312.52;1659163;85;21255;-87
2023/04/18 06:12:47;;;;;;;38.00;4.58;;;;;;;10.35;57.17;100301.73;1682603;83;21227;-87
2023/04/18 06:15:52;;;;;;;35.28;6.12;;;;;;;10.65;58.03;100298.75;1681709;83;21252;-87
2023/04/18 06:18:58;;;;;;;34.03;4.40;;;;;;;10.75;57.39;100306.23;1649165;85;21290;-87
2023/04/18 06:22:03;;;;;;;35.63;4.25;;;;;;;11.08;56.37;100297.86;1646645;85;21274;-87
2023/04/18 06:25:08;;;;;;;38.10;4.50;;;;;;;11.08;56.43;100305.55;1684683;83;21273;-87
2023/04/18 06:28:15;;;;;;;37.03;4.53;;;;;;;11.26;56.24;100310.75;1687866;83;21202;-87
2023/04/18 06:31:20;;;;;;;32.67;5.80;;;;;;;11.38;53.97;100294.22;1674401;83;21750;-87
2023/04/18 06:34:27;;;;;;;42.80;4.92;;;;;;;10.98;54.86;100307.66;1679031;83;21865;-88
2023/04/18 06:37:33;;;;;;;40.20;4.90;;;;;;;10.77;55.49;100308.77;1670296;85;21400;-87
2023/04/18 06:40:40;;;;;;;41.63;5.17;;;;;;;10.69;56.36;100309.16;1628076;84;22005;-87
2023/04/18 06:43:45;;;;;;;36.75;4.62;;;;;;;10.56;57.41;100314.86;1652575;85;21225;-87
2023/04/18 06:46:51;;;;;;;34.53;4.25;;;;;;;10.72;57.19;100302.47;1642607;85;21271;-87
2023/04/18 06:49:58;;;;;;;42.17;4.60;;;;;;;10.90;57.50;100304.44;1641551;85;21303;-87
2023/04/18 06:53:03;;;;;;;32.70;4.65;;;;;;;11.12;58.76;100300.58;1661800;85;21248;-87
2023/04/18 06:56:07;;;;;;;45.90;5.42;;;;;;;11.55;56.41;100308.67;1672086;85;21256;-87
2023/04/18 06:59:13;;;;;;;61.42;5.47;;;;;;;11.62;55.04;100300.55;1680525;83;21243;-87
2023/04/18 07:02:19;;;;;;;41.15;4.75;;;;;;;11.74;55.12;100299.09;1662167;83;21258;-87
2023/04/18 07:05:30;;;;;;;43.68;5.10;;;;;;;11.99;54.79;100298.38;1686859;83;21294;-87
2023/04/18 07:08:36;;;;;;;33.65;3.70;;;;;;;11.95;54.57;100301.16;1686314;83;21262;-87
2023/04/18 07:11:43;;;;;;;34.43;3.98;;;;;;;12.00;53.53;100302.85;1675271;83;21243;-87
2023/04/18 07:14:47;;;;;;;49.40;4.50;;;;;;;11.93;53.42;100305.47;1691517;83;21250;-87
2023/04/18 07:17:53;;;;;;;35.08;4.42;;;;;;;11.71;53.95;100298.08;1702676;83;21334;-87
2023/04/18 07:20:58;;;;;;;28.95;3.90;;;;;;;11.48;55.95;100298.97;1686026;83;22779;-87
2023/04/18 07:24:03;;;;;;;30.57;6.45;;;;;;;11.56;55.61;100309.52;1687802;83;21258;-87
2023/04/18 07:27:10;;;;;;;35.17;5.30;;;;;;;11.65;56.13;100304.31;1688067;83;21315;-87
2023/04/18 07:30:16;;;;;;;24.23;4.22;;;;;;;11.85;55.89;100308.80;1671646;84;21243;-87
2023/04/18 07:33:23;;;;;;;34.00;5.15;;;;;;;12.02;57.05;100315.32;1659814;84;21259;-88
2023/04/18 07:36:30;;;;;;;31.65;4.35;;;;;;;12.09;56.10;100307.71;1659340;84;21324;-87
2023/04/18 07:39:35;;;;;;;41.60;4.65;;;;;;;12.17;54.22;100320.83;1649309;85;21244;-87
2023/04/18 07:42:42;;;;;;;39.00;4.85;;;;;;;12.05;55.26;100321.48;1628015;86;21465;-88
2023/04/18 07:45:47;;;;;;;25.85;4.20;;;;;;;12.22;54.04;100307.41;1636070;85;21312;-87
2023/04/18 07:48:53;;;;;;;36.20;4.87;;;;;;;12.24;53.92;100319.58;1708494;83;21260;-87
2023/04/18 07:51:58;;;;;;;37.88;4.20;;;;;;;12.14;54.86;100313.00;1677212;83;21266;-87
2023/04/18 07:55:06;;;;;;;39.27;4.08;;;;;;;12.31;54.19;100299.95;1698854;83;21214;-87
2023/04/18 07:58:11;;;;;;;31.05;4.03;;;;;;;12.39;54.36;100299.88;1659789;83;21339;-87
2023/04/18 08:01:22;;;;;;;36.93;4.00;;;;;;;12.10;56.71;100292.99;1681019;82;21242;-87
2023/04/18 08:04:28;;;;;;;35.03;3.80;;;;;;;12.19;55.95;100289.98;1657863;84;21244;-87
2023/04/18 08:07:35;;;;;;;28.95;3.67;;;;;;;12.23;55.26;100291.80;1656794;85;21247;-87
2023/04/18 08:10:44;;;;;;;60.28;5.55;;;;;;;12.38;55.38;100302.81;1706334;82;21409;-87
2023/04/18 08:13:51;;;;;;;36.40;4.72;;;;;;;12.45;54.89;100299.62;1660808;84;22099;-87
2023/04/18 08:16:58;;;;;;;42.05;5.12;;;;;;;12.67;54.19;100292.35;1655254;85;21255;-87
2023/04/18 08:20:06;;;;;;;34.65;4.00;;;;;;;12.61;54.19;100289.85;1671064;85;21849;-87
2023/04/18 08:23:11;;;;;;;27.20;3.75;;;;;;;12.58;56.38;100290.22;1631182;84;21260;-87
2023/04/18 08:26:18;;;;;;;43.78;4.03;;;;;;;12.63;55.87;100300.63;1648820;84;21321;-87
2023/04/18 08:29:23;;;;;;;36.30;5.87;;;;;;;12.81;55.06;100289.27;1656764;83;21299;-87
2023/04/18 08:32:30;;;;;;;27.65;4.17;;;;;;;12.73;55.13;100292.95;1621252;86;21244;-87
2023/04/18 08:35:35;;;;;;;33.23;3.85;;;;;;;12.83;55.88;100286.64;1653640;85;21336;-87
2023/04/18 08:38:41;;;;;;;30.00;4.97;;;;;;;13.08;56.58;100284.93;1630686;83;21317;-87
2023/04/18 08:41:47;;;;;;;31.48;4.25;;;;;;;13.25;54.53;100287.81;1640126;85;21266;-88
2023/04/18 08:44:52;;;;;;;37.48;5.97;;;;;;;13.17;55.31;100294.23;1622624;86;21246;-87
2023/04/18 08:48:00;;;;;;;30.43;4.65;;;;;;;13.20;55.56;100276.53;1642108;81;21206;-87
2023/04/18 08:51:05;;;;;;;42.90;4.28;;;;;;;13.34;54.82;100274.81;1665810;85;21322;-86
2023/04/18 08:54:12;;;;;;;23.77;3.40;;;;;;;13.51;53.70;100282.61;1654416;84;21249;-87
2023/04/18 08:57:25;;;;;;;31.23;3.90;;;;;;;13.42;53.54;100282.41;1656560;85;21334;-87
2023/04/18 09:00:29;;;;;;;30.57;4.35;;;;;;;13.35;53.38;100288.34;1616334;86;21333;-87
2023/04/18 09:03:46;;;;;;;20.43;3.90;;;;;;;13.27;54.77;100282.99;1646629;86;21284;-86
2023/04/18 09:06:59;;;;;;;33.60;4.28;;;;;;;13.47;53.98;100267.56;1624864;83;21323;-87
2023/04/18 09:10:05;;;;;;;34.15;4.05;;;;;;;13.53;52.71;100279.12;1631795;86;21810;-88
2023/04/18 09:13:11;;;;;;;37.08;5.42;;;;;;;13.57;53.70;100286.98;1687924;82;21175;-86
2023/04/18 09:16:21;;;;;;;36.50;6.33;;;;;;;13.56;53.90;100284.77;1697020;82;21181;-87
2023/04/18 09:19:25;;;;;;;33.42;4.33;;;;;;;13.64;53.93;100290.11;1671190;83;21285;-87
2023/04/18 09:22:31;;;;;;;27.55;4.22;;;;;;;13.57;53.11;100288.36;1680662;83;21272;-87
2023/04/18 09:25:51;;;;;;;25.90;3.52;;;;;;;13.59;53.03;100282.13;1620601;86;21251;-87
2023/04/18 09:28:57;;;;;;;33.95;5.03;;;;;;;13.65;54.69;100284.12;1687837;83;21254;-86
2023/04/18 09:32:06;;;;;;;38.15;4.17;;;;;;;13.81;53.97;100283.83;1676073;83;21827;-87
2023/04/18 09:35:12;;;;;;;26.85;5.12;;;;;;;13.88;54.74;100279.75;1682506;83;21263;-87
2023/04/18 09:38:17;;;;;;;30.23;4.62;;;;;;;14.13;55.50;100282.41;1678709;83;21207;-87
2023/04/18 09:41:23;;;;;;;24.85;3.98;;;;;;;14.26;53.41;100280.28;1649779;84;21266;-87
2023/04/18 09:44:31;;;;;;;25.57;3.85;;;;;;;14.35;54.09;100274.95;1650169;84;21842;-87
2023/04/18 09:47:43;;;;;;;22.87;4.25;;;;;;;14.42;52.30;100284.61;1681778;83;21235;-87
2023/04/18 09:50:50;;;;;;;29.02;4.10;;;;;;;14.54;53.17;100297.64;1678570;84;21401;-87
2023/04/18 09:53:56;;;;;;;31.05;4.42;;;;;;;14.76;52.41;100293.41;1674029;83;21234;-87
2023/04/18 09:57:01;;;;;;;35.15;5.47;;;;;;;14.91;51.13;100287.22;1714238;83;21230;-88
2023/04/18 10:00:19;;;;;;;25.45;5.10;;;;;;;15.01;51.07;100273.94;1684941;83;21837;-87
2023/04/18 10:03:28;;;;;;;45.65;4.90;;;;;;;15.10;51.89;100270.45;1680309;84;21208;-87
2023/04/18 10:06:34;;;;;;;32.60;4.62;;;;;;;15.03;50.84;100256.67;1683130;83;21269;-87
2023/04/18 10:09:43;;;;;;;28.02;4.17;;;;;;;15.07;52.20;100260.71;1689453;83;21334;-87
2023/04/18 10:12:50;;;;;;;30.45;4.53;;;;;;;15.26;50.60;100254.94;1680964;83;22559;-88
2023/04/18 10:15:58;;;;;;;22.02;3.75;;;;;;;14.86;51.65;100250.34;1674679;83;21255;-87
2023/04/18 10:19:04;;;;;;;33.18;4.60;;;;;;;14.91;53.49;100242.31;1676396;83;21235;-87
2023/04/18 10:22:09;;;;;;;34.40;4.97;;;;;;;14.94;51.32;100241.91;1680888;83;21249;-87
2023/04/18 10:25:23;;;;;;;30.05;5.10;;;;;;;15.16;51.21;100250.89;1674462;83;21423;-87
2023/04/18 10:28:30;;;;;;;25.05;5.53;;;;;;;15.28;50.51;100257.47;1680759;84;21214;-87
2023/04/18 10:31:37;;;;;;;35.48;4.95;;;;;;;15.05;51.51;100257.83;1680097;83;21245;-87
2023/04/18 10:34:44;;;;;;;32.73;4.67;;;;;;;15.05;51.02;100251.78;1655688;85;21199;-87
2023/04/18 10:38:00;;;;;;;31.33;6.60;;;;;;;15.44;51.14;100247.98;1685062;83;21247;-88
2023/04/18 10:41:34;;;;;;;43.50;6.55;;;;;;;15.23;51.99;100268.27;1655982;84;21265;-87
2023/04/18 10:44:39;;;;;;;29.95;5.00;;;;;;;15.41;49.77;100270.45;1679255;85;21273;-87
2023/04/18 10:47:45;;;;;;;30.08;4.85;;;;;;;14.92;51.68;100261.41;1678058;85;21320;-88
2023/04/18 10:51:25;;;;;;;24.82;4.47;;;;;;;14.96;52.32;100251.68;1660604;85;21808;-87
2023/04/18 10:55:01;;;;;;;43.02;5.67;;;;;;;15.14;51.18;100258.50;1691528;83;21256;-88
2023/04/18 10:58:07;;;;;;;36.08;4.67;;;;;;;15.26;51.09;100258.22;1693009;83;21218;-88
2023/04/18 11:01:14;;;;;;;28.23;4.33;;;;;;;15.42;50.74;100250.93;1683757;83;21294;-87
2023/04/18 11:04:21;;;;;;;22.87;4.72;;;;;;;15.42;51.57;100252.31;1659526;83;21304;-88
2023/04/18 11:08:06;;;;;;;29.12;4.30;;;;;;;15.33;52.95;100255.78;1654772;85;21805;-87
2023/04/18 11:11:20;;;;;;;24.82;3.70;;;;;;;15.65;51.22;100245.06;1627633;86;21243;-87
2023/04/18 11:14:28;;;;;;;26.80;4.83;;;;;;;15.40;50.80;100242.04;1644494;85;21872;-87
2023/04/18 11:17:46;;;;;;;33.08;5.28;;;;;;;15.56;51.60;100233.34;1658371;85;21261;-88
2023/04/18 11:20:57;;;;;;;30.45;4.60;;;;;;;15.72;51.42;100236.28;1641724;86;21716;-87
2023/04/18 11:24:03;;;;;;;29.80;4.87;;;;;;;15.89;51.24;100243.58;1645052;86;21829;-87
2023/04/18 11:27:19;;;;;;;30.32;5.37;;;;;;;15.60;51.17;100245.66;1642074;86;21309;-88
2023/04/18 11:30:31;;;;;;;26.35;5.87;;;;;;;15.59;51.47;100243.97;1640770;85;21905;-88
2023/04/18 11:33:38;;;;;;;36.38;6.87;;;;;;;15.72;51.51;100237.66;1643622;84;21248;-88
2023/04/18 11:36:43;;;;;;;33.38;5.30;;;;;;;15.57;51.93;100223.17;1654191;85;21212;-87
2023/04/18 11:39:50;;;;;;;28.67;6.08;;;;;;;15.77;51.36;100220.47;1668294;85;21263;-88
2023/04/18 11:42:56;;;;;;;28.87;5.83;;;;;;;15.90;51.64;100222.36;1647678;85;21231;-88
2023/04/18 11:46:04;;;;;;;30.10;4.75;;;;;;;16.02;51.36;100214.61;1653438;85;21266;-87
2023/04/18 11:49:10;;;;;;;25.85;5.05;;;;;;;16.10;49.34;100208.88;1647491;84;21222;-88
2023/04/18 11:52:20;;;;;;;22.00;5.08;;;;;;;15.87;51.30;100218.67;1644757;85;21737;-88
2023/04/18 11:55:27;;;;;;;28.32;4.90;;;;;;;15.72;51.51;100222.48;1686178;84;21856;-87
2023/04/18 11:58:42;;;;;;;39.08;5.78;;;;;;;15.55;52.41;100204.62;1667710;85;21196;-87
2023/04/18 12:01:49;;;;;;;25.00;5.15;;;;;;;15.68;52.03;100201.91;1690353;83;21206;-87
2023/04/18 12:05:06;;;;;;;26.23;5.00;;;;;;;15.65;51.88;100197.34;1677841;83;21247;-87
2023/04/18 12:08:19;;;;;;;20.88;4.30;;;;;;;15.73;51.38;100185.58;1684919;83;21219;-87
2023/04/18 12:11:29;;;;;;;33.78;5.42;;;;;;;15.72;53.02;100194.91;1684404;84;21204;-87
2023/04/18 12:14:34;;;;;;;22.67;4.58;;;;;;;15.82;52.08;100188.97;1660310;85;21230;-87
2023/04/18 12:17:41;;;;;;;25.97;5.45;;;;;;;15.96;50.93;100182.91;1682332;84;21259;-87
2023/04/18 12:20:57;;;;;;;29.12;5.75;;;;;;;15.88;52.03;100188.64;1651105;84;21228;-88
2023/04/18 12:24:00;;;;;;;27.93;6.05;;;;;;;15.94;51.76;100193.29;1685701;83;21523;-87
2023/04/18 12:27:06;;;;;;;34.73;6.78;;;;;;;16.22;51.94;100190.27;1668428;83;21258;-88
2023/04/18 12:30:13;;;;;;;25.72;6.03;;;;;;;16.14;51.70;100187.73;1683493;83;21235;-87
2023/04/18 12:33:19;;;;;;;19.82;5.60;;;;;;;16.13;52.21;100177.77;1684432;83;21218;-87
2023/04/18 12:36:27;;;;;;;35.63;6.75;;;;;;;16.05;52.58;100170.59;1713603;83;21350;-87
2023/04/18 12:39:33;;;;;;;26.17;6.15;;;;;;;16.19;50.77;100168.64;1688893;83;21222;-87
2023/04/18 12:42:38;;;;;;;28.25;5.87;;;;;;;15.83;51.39;100169.97;1702794;83;21288;-86
2023/04/18 12:45:44;;;;;;;27.42;6.30;;;;;;;15.93;51.63;100166.23;1695395;83;21819;-87
2023/04/18 12:48:49;;;;;;;28.45;6.33;;;;;;;15.84;52.56;100171.66;1683235;83;22337;-87
2023/04/18 12:51:55;;;;;;;21.90;7.03;;;;;;;15.75;52.65;100164.14;1679382;83;21810;-87
2023/04/18 12:55:00;;;;;;;25.60;7.00;;;;;;;15.94;51.91;100169.31;1681515;84;21239;-87
2023/04/18 12:58:06;;;;;;;23.32;6.87;;;;;;;15.86;51.97;100163.20;1691095;83;21581;-87
2023/04/18 13:01:12;;;;;;;26.75;6.10;;;;;;;15.89;52.69;100171.86;1718871;83;21310;-87
2023/04/18 13:04:19;;;;;;;25.95;6.87;;;;;;;16.18;51.11;100168.30;1685431;83;21270;-89
2023/04/18 13:07:25;;;;;;;22.58;6.25;;;;;;;16.09;51.37;100174.58;1678692;83;21235;-89
2023/04/18 13:10:31;;;;;;;47.27;7.05;;;;;;;16.05;52.08;100176.10;1666597;83;21232;-86
2023/04/18 13:13:38;;;;;;;25.02;6.10;;;;;;;15.81;53.74;100179.00;1661640;84;21255;-86
2023/04/18 13:16:42;;;;;;;13.08;4.25;;;;;;;15.70;53.17;100176.88;1674373;83;21804;-87
2023/04/18 13:19:47;;;;;;;16.97;3.80;;;;;;;15.73;52.01;100184.73;1676719;84;21314;-87
2023/04/18 13:22:53;;;;;;;15.23;3.33;;;;;;;15.66;51.89;100182.49;1689494;84;21250;-87
2023/04/18 13:25:58;;;;;;;22.98;3.80;;;;;;;15.69;52.31;100179.32;1681487;83;21262;-87
2023/04/18 13:29:04;;;;;;;24.18;5.50;;;;;;;15.58;52.04;100172.52;1671441;83;22003;-87
2023/04/18 13:32:12;;;;;;;23.18;4.22;;;;;;;15.60;52.10;100172.60;1680924;83;21251;-87
2023/04/18 13:35:19;;;;;;;29.75;5.30;;;;;;;15.51;53.26;100165.60;1695893;83;21308;-87
2023/04/18 13:38:25;;;;;;;21.50;3.87;;;;;;;15.60;54.04;100164.33;1716163;83;21225;-87
2023/04/18 13:41:32;;;;;;;26.87;5.00;;;;;;;15.76;53.16;100158.97;1705102;83;21251;-87
2023/04/18 13:44:38;;;;;;;23.62;4.37;;;;;;;15.82;53.20;100164.99;1714035;83;21749;-87
2023/04/18 13:47:43;;;;;;;20.70;4.10;;;;;;;15.80;52.67;100153.84;1711642;83;21218;-87
2023/04/18 13:50:50;;;;;;;21.05;5.12;;;;;;;15.73;53.79;100155.24;1702435;83;22027;-87
2023/04/18 13:53:59;;;;;;;23.65;4.12;;;;;;;15.81;53.62;100143.16;1713640;83;21241;-87
2023/04/18 13:57:10;;;;;;;17.40;4.22;;;;;;;15.75;53.87;100146.21;1714413;83;21250;-87
2023/04/18 14:00:15;;;;;;;18.87;4.10;;;;;;;15.80;53.16;100145.03;1718132;83;21205;-87
2023/04/18 14:03:21;;;;;;;26.82;4.20;;;;;;;15.61;53.62;100138.98;1719240;83;21222;-87
2023/04/18 14:06:27;;;;;;;20.45;3.83;;;;;;;15.55;54.23;100145.36;1720400;83;21201;-87
2023/04/18 14:09:33;;;;;;;21.52;4.28;;;;;;;15.56;53.44;100151.19;1715567;83;21227;-87
2023/04/18 14:12:39;;;;;;;19.67;3.40;;;;;;;15.58;54.55;100147.17;1717124;83;21237;-88
2023/04/18 14:15:45;;;;;;;15.55;4.80;;;;;;;15.69;53.84;100146.23;1717623;83;21232;-87
2023/04/18 14:18:52;;;;;;;21.48;4.67;;;;;;;15.56;54.40;100136.02;1716873;83;21226;-87
2023/04/18 14:21:58;;;;;;;17.73;4.25;;;;;;;15.68;54.23;100139.03;1710759;83;21233;-87
2023/04/18 14:25:04;;;;;;;20.05;3.98;;;;;;;15.68;54.21;100139.88;1716224;83;21183;-87